createdAt,value
2019-01-11T00:00:49.735Z,102344.53
2019-01-11T00:03:18.115Z,102347.06
2019-01-11T00:05:46.448Z,102346.06
2019-01-11T00:08:14.821Z,102339.72
2019-01-11T00:10:43.233Z,102337.19
2019-01-11T00:13:11.627Z,102337.70
2019-01-11T00:15:39.966Z,102330.54
2019-01-11T00:18:08.362Z,102326.39
2019-01-11T00:20:36.641Z,102323.02
2019-01-11T00:23:04.950Z,102325.37
2019-01-11T00:25:33.373Z,102326.38
2019-01-11T00:28:01.691Z,102313.20
2019-01-11T00:30:30.063Z,102308.88
2019-01-11T00:32:58.455Z,102303.69
2019-01-11T00:35:26.854Z,102308.37
2019-01-11T00:37:55.232Z,102301.02
2019-01-11T00:40:23.587Z,102301.69
2019-01-11T00:42:51.915Z,102119.27
2019-01-11T00:45:20.187Z,102297.20
2019-01-11T00:47:48.493Z,102287.17
2019-01-11T00:50:16.856Z,102287.52
2019-01-11T00:52:45.196Z,102283.53
2019-01-11T00:55:13.465Z,102286.53
2019-01-11T00:57:41.732Z,102284.02
2019-01-11T01:00:15.830Z,102281.69
2019-01-11T01:02:44.231Z,102289.67
2019-01-11T01:05:12.606Z,102293.34
2019-01-11T01:07:41.021Z,102289.36
2019-01-11T01:10:09.294Z,102289.20
2019-01-11T01:12:37.635Z,102289.34
2019-01-11T01:15:09.820Z,102191.72
2019-01-11T01:17:38.197Z,102289.36
2019-01-11T01:20:15.451Z,102273.50
2019-01-11T01:22:43.711Z,102261.16
2019-01-11T01:25:12.141Z,102267.50
2019-01-11T01:27:40.618Z,102262.67
2019-01-11T01:30:19.400Z,102261.50
2019-01-11T01:32:47.734Z,102264.98
2019-01-11T01:35:16.074Z,102261.84
2019-01-11T01:37:44.525Z,102269.17
2019-01-11T01:40:15.637Z,102268.34
2019-01-11T01:42:43.959Z,102258.66
2019-01-11T01:45:17.964Z,102261.33
2019-01-11T01:47:46.271Z,102276.67
2019-01-11T01:50:14.616Z,102259.16
2019-01-11T01:52:42.978Z,102251.99
2019-01-11T01:55:13.512Z,102256.64
2019-01-11T01:57:44.344Z,102261.00
2019-01-11T02:00:18.671Z,102262.00
2019-01-11T02:02:47.083Z,102257.00
2019-01-11T02:05:15.430Z,102252.30
2019-01-11T02:07:43.945Z,102245.14
2019-01-11T02:10:13.619Z,102248.62
2019-01-11T02:12:42.014Z,102248.12
2019-01-11T02:15:11.753Z,102248.95
2019-01-11T02:17:40.009Z,102240.77
2019-01-11T02:20:11.675Z,102237.44
2019-01-11T02:22:39.967Z,102237.44
2019-01-11T02:25:09.475Z,102237.63
2019-01-11T02:27:37.784Z,102230.77
2019-01-11T02:30:09.306Z,102235.42
2019-01-11T02:32:37.749Z,102232.75
2019-01-11T02:35:06.182Z,102226.91
2019-01-11T02:37:34.468Z,102224.73
2019-01-11T02:40:03.630Z,102209.05
2019-01-11T02:42:31.975Z,102217.06
2019-01-11T02:45:00.257Z,102218.90
2019-01-11T02:47:28.687Z,102225.39
2019-01-11T02:49:57.091Z,102225.05
2019-01-11T02:52:25.389Z,102228.25
2019-01-11T02:54:53.755Z,102215.55
2019-01-11T02:57:22.057Z,102221.88
2019-01-11T02:59:50.479Z,102215.70
2019-01-11T03:02:18.948Z,102215.89
2019-01-11T03:04:47.318Z,102220.05
2019-01-11T03:07:15.585Z,102222.56
2019-01-11T03:09:43.988Z,102218.72
2019-01-11T03:12:12.260Z,102220.70
2019-01-11T03:14:40.524Z,102224.87
2019-01-11T03:17:08.823Z,102217.38
2019-01-11T03:19:37.147Z,102217.84
2019-01-11T03:22:05.709Z,102215.20
2019-01-11T03:24:34.082Z,102216.51
2019-01-11T03:27:02.444Z,102220.52
2019-01-11T03:29:30.819Z,102224.87
2019-01-11T03:31:59.092Z,102226.36
2019-01-11T03:34:27.388Z,102232.88
2019-01-11T03:36:55.654Z,102226.52
2019-01-11T03:39:24.062Z,102214.48
2019-01-11T03:41:53.966Z,102212.00
2019-01-11T03:44:22.241Z,102218.49
2019-01-11T03:46:50.534Z,102213.14
2019-01-11T03:49:18.925Z,102206.96
2019-01-11T03:51:47.268Z,102204.13
2019-01-11T03:54:15.558Z,102202.45
2019-01-11T03:56:43.890Z,102191.91
2019-01-11T03:59:12.192Z,102202.27
2019-01-11T04:01:40.477Z,102202.91
2019-01-11T04:04:08.947Z,102197.56
2019-01-11T04:06:37.247Z,102201.08
2019-01-11T04:09:08.992Z,102202.41
2019-01-11T04:11:37.318Z,102190.88
2019-01-11T04:14:05.650Z,102195.53
2019-01-11T04:16:34.084Z,102182.66
2019-01-11T04:19:04.014Z,102179.00
2019-01-11T04:21:33.632Z,102174.48
2019-01-11T04:24:02.711Z,102174.62
2019-01-11T04:26:31.689Z,102170.95
2019-01-11T04:28:59.965Z,102178.45
2019-01-11T04:31:28.241Z,102180.62
2019-01-11T04:33:56.635Z,102180.77
2019-01-11T04:36:24.915Z,102176.27
2019-01-11T04:38:53.303Z,102176.75
2019-01-11T04:41:21.582Z,102176.55
2019-01-11T04:43:49.941Z,102176.55
2019-01-11T04:46:18.404Z,102172.31
2019-01-11T04:48:46.734Z,102158.45
2019-01-11T04:51:15.038Z,102163.31
2019-01-11T04:53:43.343Z,102122.20
2019-01-11T04:56:11.849Z,102162.61
2019-01-11T04:58:40.196Z,102165.27
2019-01-11T05:01:08.586Z,102161.27
2019-01-11T05:03:37.139Z,102171.11
2019-01-11T05:06:05.409Z,102170.06
2019-01-11T05:08:33.708Z,102172.08
2019-01-11T05:11:02.169Z,102171.58
2019-01-11T05:13:37.640Z,102161.86
2019-01-11T05:16:06.122Z,102160.34
2019-01-11T05:18:34.522Z,102150.48
2019-01-11T05:21:02.911Z,102149.48
2019-01-11T05:23:31.295Z,102148.16
2019-01-11T05:25:59.681Z,102129.56
2019-01-11T05:28:27.962Z,102132.09
2019-01-11T05:30:58.051Z,102123.06
2019-01-11T05:33:36.051Z,102128.06
2019-01-11T05:36:04.829Z,102135.53
2019-01-11T05:38:33.258Z,101912.50
2019-01-11T05:41:01.628Z,102143.69
2019-01-11T05:43:29.971Z,102160.65
2019-01-11T05:45:58.371Z,102167.88
2019-01-11T05:48:26.709Z,102163.86
2019-01-11T05:50:55.778Z,102152.98
2019-01-11T05:53:24.064Z,102156.47
2019-01-11T05:55:52.409Z,102160.34
2019-01-11T05:58:25.035Z,102156.63
2019-01-11T06:00:53.941Z,102152.12
2019-01-11T06:03:22.212Z,102152.12
2019-01-11T06:05:50.487Z,102155.77
2019-01-11T06:08:20.600Z,102157.11
2019-01-11T06:10:49.025Z,102159.77
2019-01-11T06:13:18.152Z,102152.94
2019-01-11T06:15:46.429Z,102156.11
2019-01-11T06:18:14.761Z,102162.92
2019-01-11T06:20:43.172Z,101933.44
2019-01-11T06:23:11.623Z,102155.39
2019-01-11T06:25:39.890Z,102157.70
2019-01-11T06:28:08.169Z,102159.38
2019-01-11T06:30:36.460Z,102160.19
2019-01-11T06:33:04.738Z,102162.98
2019-01-11T06:35:33.210Z,102155.65
2019-01-11T06:38:01.556Z,102153.78
2019-01-11T06:40:29.957Z,102163.09
2019-01-11T06:43:03.519Z,102153.22
2019-01-11T06:45:28.296Z,102159.69
2019-01-11T06:47:56.655Z,102158.86
2019-01-11T06:50:25.043Z,102160.17
2019-01-11T06:52:53.415Z,102158.97
2019-01-11T06:55:21.734Z,102166.97
2019-01-11T06:57:50.209Z,102164.20
2019-01-11T07:00:18.819Z,102156.00
2019-01-11T07:02:47.083Z,102158.95
2019-01-11T07:05:15.490Z,102160.06
2019-01-11T07:07:43.761Z,102161.56
2019-01-11T07:10:18.244Z,102158.82
2019-01-11T07:12:46.538Z,102160.46
2019-01-11T07:15:14.974Z,102157.55
2019-01-11T07:17:43.413Z,102160.03
2019-01-11T07:20:14.804Z,102160.70
2019-01-11T07:22:43.232Z,102164.98
2019-01-11T07:25:13.538Z,102162.86
2019-01-11T07:27:55.508Z,102166.88
2019-01-11T07:30:25.447Z,102168.36
2019-01-11T07:32:53.768Z,102165.67
2019-01-11T07:35:22.108Z,102159.81
2019-01-11T07:37:50.423Z,102083.63
2019-01-11T07:40:18.800Z,102159.23
2019-01-11T07:42:47.157Z,102163.59
2019-01-11T07:45:15.479Z,102155.55
2019-01-11T07:47:43.769Z,102164.52
2019-01-11T07:50:12.275Z,102159.88
2019-01-11T07:52:40.638Z,102155.66
2019-01-11T07:55:09.764Z,102160.38
2019-01-11T07:57:38.129Z,102157.83
2019-01-11T08:00:09.963Z,102153.80
2019-01-11T08:02:38.400Z,102150.58
2019-01-11T08:05:07.411Z,102156.78
2019-01-11T08:07:35.763Z,102143.75
2019-01-11T08:10:07.508Z,102137.75
2019-01-11T08:12:35.941Z,102132.89
2019-01-11T08:15:07.180Z,102136.53
2019-01-11T08:17:35.570Z,102135.86
2019-01-11T08:20:05.770Z,102133.80
2019-01-11T08:22:35.715Z,102141.33
2019-01-11T08:25:04.997Z,102142.80
2019-01-11T08:27:33.277Z,102143.17
2019-01-11T08:30:01.626Z,102144.80
2019-01-11T08:32:30.212Z,102150.41
2019-01-11T08:34:58.596Z,102140.12
2019-01-11T08:37:26.889Z,102145.44
2019-01-11T08:39:55.249Z,102142.05
2019-01-11T08:42:23.612Z,102136.80
2019-01-11T08:44:51.970Z,102136.74
2019-01-11T08:47:20.318Z,102137.70
2019-01-11T08:49:48.673Z,102134.56
2019-01-11T08:52:17.029Z,102138.95
2019-01-11T08:54:45.296Z,102139.02
2019-01-11T08:57:13.600Z,102140.42
2019-01-11T08:59:41.985Z,102140.20
2019-01-11T09:02:10.323Z,102135.94
2019-01-11T09:04:38.683Z,102140.32
2019-01-11T09:07:07.059Z,102136.73
2019-01-11T09:09:35.341Z,102131.80
2019-01-11T09:12:03.815Z,102125.43
2019-01-11T09:14:36.732Z,102124.02
2019-01-11T09:17:05.245Z,102126.92
2019-01-11T09:19:33.613Z,102127.22
2019-01-11T09:22:01.935Z,102123.84
2019-01-11T09:24:30.245Z,102125.30
2019-01-11T09:26:58.553Z,102134.20
2019-01-11T09:29:26.962Z,102128.83
2019-01-11T09:31:55.473Z,102128.65
2019-01-11T09:34:23.745Z,102132.00
2019-01-11T09:36:52.099Z,102124.33
2019-01-11T09:39:20.609Z,102134.52
2019-01-11T09:41:48.997Z,102134.37
2019-01-11T09:44:17.342Z,102005.12
2019-01-11T09:46:45.825Z,102133.31
2019-01-11T09:49:14.556Z,102142.63
2019-01-11T09:51:43.803Z,102137.69
2019-01-11T09:54:12.191Z,102139.14
2019-01-11T09:56:40.485Z,102134.02
2019-01-11T09:59:08.852Z,102134.45
2019-01-11T10:01:37.175Z,102137.14
2019-01-11T10:04:05.545Z,102141.47
2019-01-11T10:06:35.450Z,102137.14
2019-01-11T10:09:05.616Z,102144.27
2019-01-11T10:11:33.884Z,102133.75
2019-01-11T10:14:02.260Z,102136.88
2019-01-11T10:16:30.642Z,102135.97
2019-01-11T10:18:58.924Z,102132.47
2019-01-11T10:21:27.446Z,102130.31
2019-01-11T10:23:56.636Z,102139.95
2019-01-11T10:26:24.917Z,102136.09
2019-01-11T10:28:53.386Z,102140.06
2019-01-11T10:31:21.858Z,102132.30
2019-01-11T10:33:50.170Z,102131.90
2019-01-11T10:36:18.435Z,102130.68
2019-01-11T10:38:46.868Z,102125.63
2019-01-11T10:41:15.202Z,102125.72
2019-01-11T10:43:43.467Z,102120.44
2019-01-11T10:46:16.377Z,102122.11
2019-01-11T10:48:44.674Z,102122.73
2019-01-11T10:51:12.942Z,102117.13
2019-01-11T10:53:42.109Z,102119.62
2019-01-11T10:56:10.543Z,102120.46
2019-01-11T10:58:39.368Z,102122.41
2019-01-11T11:01:08.054Z,102123.55
2019-01-11T11:03:36.451Z,102122.70
2019-01-11T11:06:05.916Z,102117.53
2019-01-11T11:08:34.400Z,102125.52
2019-01-11T11:11:02.971Z,102123.67
2019-01-11T11:13:31.489Z,102120.16
2019-01-11T11:16:00.269Z,102113.84
2019-01-11T11:18:29.228Z,102114.38
2019-01-11T11:20:58.421Z,102115.92
2019-01-11T11:23:27.503Z,102116.57
2019-01-11T11:26:03.571Z,102114.48
2019-01-11T11:28:34.212Z,102114.15
2019-01-11T11:31:05.304Z,102119.84
2019-01-11T11:33:34.931Z,102114.16
2019-01-11T11:36:05.430Z,102108.34
2019-01-11T11:38:34.384Z,102108.95
2019-01-11T11:41:03.339Z,102102.03
2019-01-11T11:43:31.735Z,102099.23
2019-01-11T11:46:00.495Z,102103.19
2019-01-11T11:48:29.620Z,102098.31
2019-01-11T11:50:58.496Z,102092.84
2019-01-11T11:53:26.880Z,102082.25
2019-01-11T11:55:55.722Z,102076.57
2019-01-11T11:58:24.106Z,102078.72
2019-01-11T12:00:53.415Z,102075.20
2019-01-11T12:03:21.720Z,102076.44
2019-01-11T12:05:50.165Z,102075.20
2019-01-11T12:08:18.604Z,102069.59
2019-01-11T12:10:46.917Z,102065.86
2019-01-11T12:13:15.333Z,102072.00
2019-01-11T12:15:43.773Z,102067.13
2019-01-11T12:18:12.476Z,102071.08
2019-01-11T12:20:40.861Z,102064.54
2019-01-11T12:23:09.321Z,102062.68
2019-01-11T12:25:37.787Z,102058.41
2019-01-11T12:28:06.053Z,102059.75
2019-01-11T12:30:34.479Z,102059.77
2019-01-11T12:33:02.949Z,102058.23
2019-01-11T12:35:31.256Z,102053.25
2019-01-11T12:37:59.874Z,102041.74
2019-01-11T12:40:28.347Z,102050.05
2019-01-11T12:42:56.768Z,102043.73
2019-01-11T12:45:25.140Z,102037.41
2019-01-11T12:47:53.548Z,102038.02
2019-01-11T12:50:23.998Z,102029.50
2019-01-11T12:52:52.745Z,102025.86
2019-01-11T12:55:21.189Z,102025.45
2019-01-11T12:57:49.832Z,102014.99
2019-01-11T13:00:19.969Z,102018.03
2019-01-11T13:02:48.353Z,102020.31
2019-01-11T13:05:19.241Z,102023.52
2019-01-11T13:07:47.630Z,102020.32
2019-01-11T13:10:18.964Z,102021.13
2019-01-11T13:12:47.536Z,102032.64
2019-01-11T13:15:19.064Z,102023.40
2019-01-11T13:17:47.792Z,101967.28
2019-01-11T13:20:19.438Z,102018.52
2019-01-11T13:22:47.920Z,102028.82
2019-01-11T13:25:16.555Z,102018.97
2019-01-11T13:27:45.562Z,102019.90
2019-01-11T13:30:20.480Z,102020.64
2019-01-11T13:32:53.063Z,102014.42
2019-01-11T13:35:23.884Z,102007.17
2019-01-11T13:37:55.553Z,102006.41
2019-01-11T13:40:26.356Z,102010.45
2019-01-11T13:42:54.965Z,102012.44
2019-01-11T13:45:26.585Z,102007.05
2019-01-11T13:47:55.166Z,102008.17
2019-01-11T13:50:32.576Z,102016.16
2019-01-11T13:53:00.939Z,102010.48
2019-01-11T13:55:29.417Z,102014.70
2019-01-11T13:57:57.799Z,102014.70
2019-01-11T14:00:26.135Z,102012.11
2019-01-11T14:02:54.807Z,101961.58
2019-01-11T14:05:29.123Z,102013.55
2019-01-11T14:07:57.508Z,102020.70
2019-01-11T14:10:26.035Z,102022.05
2019-01-11T14:12:54.483Z,102007.56
2019-01-11T14:15:23.016Z,102017.72
2019-01-11T14:17:51.547Z,102013.55
2019-01-11T14:20:19.942Z,102015.55
2019-01-11T14:22:48.429Z,102014.30
2019-01-11T14:25:17.186Z,102021.86
2019-01-11T14:27:46.969Z,102014.71
2019-01-11T14:30:19.557Z,102026.09
2019-01-11T14:32:48.176Z,102020.00
2019-01-11T14:35:17.389Z,102019.67
2019-01-11T14:37:45.919Z,102026.22
2019-01-11T14:40:17.584Z,102021.34
2019-01-11T14:42:46.278Z,102022.79
2019-01-11T14:45:17.803Z,102026.11
2019-01-11T14:47:46.226Z,102017.52
2019-01-11T14:50:17.619Z,102019.80
2019-01-11T14:52:46.151Z,102023.34
2019-01-11T14:55:14.732Z,102028.05
2019-01-11T14:57:43.134Z,102038.73
2019-01-11T15:00:20.616Z,102031.29
2019-01-11T15:02:49.093Z,102036.16
2019-01-11T15:05:19.875Z,102035.62
2019-01-11T15:07:48.517Z,102039.98
2019-01-11T15:10:17.378Z,102030.13
2019-01-11T15:12:49.789Z,102024.52
2019-01-11T15:15:18.121Z,102033.14
2019-01-11T15:17:46.941Z,102038.59
2019-01-11T15:20:17.685Z,102038.06
2019-01-11T15:22:46.367Z,102036.53
2019-01-11T15:25:14.855Z,102034.24
2019-01-11T15:27:43.319Z,102029.45
2019-01-11T15:30:17.883Z,102037.53
2019-01-11T15:32:46.424Z,102031.83
2019-01-11T15:35:14.736Z,102034.73
2019-01-11T15:37:43.135Z,102034.13
2019-01-11T15:40:17.463Z,102027.69
2019-01-11T15:42:45.956Z,102028.20
2019-01-11T15:45:14.415Z,102028.84
2019-01-11T15:47:42.824Z,102026.66
2019-01-11T15:50:16.094Z,102025.31
2019-01-11T15:52:44.480Z,102024.38
2019-01-11T15:55:12.972Z,102018.59
2019-01-11T15:57:44.107Z,102026.75
2019-01-11T16:00:18.176Z,102019.48
2019-01-11T16:02:46.617Z,102024.45
2019-01-11T16:05:16.538Z,102030.55
2019-01-11T16:07:45.063Z,102028.48
2019-01-11T16:10:26.586Z,102024.45
2019-01-11T16:12:55.790Z,102026.11
2019-01-11T16:15:45.234Z,102023.75
2019-01-11T16:18:16.892Z,102030.15
2019-01-11T16:20:45.265Z,102026.30
2019-01-11T16:23:13.739Z,102037.38
2019-01-11T16:25:42.086Z,102031.80
2019-01-11T16:28:10.706Z,102027.86
2019-01-11T16:30:39.026Z,102030.88
2019-01-11T16:33:08.005Z,102032.52
2019-01-11T16:35:36.333Z,101829.48
2019-01-11T16:38:04.725Z,102045.67
2019-01-11T16:40:33.191Z,102034.48
2019-01-11T16:43:03.411Z,102039.86
2019-01-11T16:45:31.973Z,102039.86
2019-01-11T16:48:00.391Z,102037.17
2019-01-11T16:50:28.783Z,102044.19
2019-01-11T16:52:57.259Z,102047.02
2019-01-11T16:55:29.100Z,102040.70
2019-01-11T16:57:57.419Z,102043.39
2019-01-11T17:00:25.770Z,102054.36
2019-01-11T17:02:54.211Z,102050.22
2019-01-11T17:05:23.288Z,102055.59
2019-01-11T17:07:51.824Z,102051.45
2019-01-11T17:10:20.299Z,102056.62
2019-01-11T17:12:49.308Z,102061.89
2019-01-11T17:15:19.199Z,102059.61
2019-01-11T17:17:47.538Z,102056.92
2019-01-11T17:20:17.210Z,102056.92
2019-01-11T17:22:45.691Z,102050.70
2019-01-11T17:25:14.228Z,102052.48
2019-01-11T17:27:42.641Z,102053.20
2019-01-11T17:30:14.468Z,102053.91
2019-01-11T17:32:42.952Z,102063.83
2019-01-11T17:35:11.381Z,102053.61
2019-01-11T17:37:39.876Z,102059.80
2019-01-11T17:40:11.536Z,102057.94
2019-01-11T17:42:41.776Z,102062.19
2019-01-11T17:45:12.585Z,102056.08
2019-01-11T17:47:40.911Z,102053.47
2019-01-11T17:50:14.738Z,102059.25
2019-01-11T17:52:43.060Z,102060.20
2019-01-11T17:55:11.477Z,102056.78
2019-01-11T17:57:39.801Z,102059.47
2019-01-11T18:00:14.799Z,102064.84
2019-01-11T18:02:43.130Z,102070.23
2019-01-11T18:05:13.814Z,102067.86
2019-01-11T18:07:42.287Z,102074.59
2019-01-11T18:10:13.990Z,102067.21
2019-01-11T18:12:42.448Z,102071.97
2019-01-11T18:15:14.082Z,102065.58
2019-01-11T18:17:42.444Z,102072.59
2019-01-11T18:20:14.096Z,102068.55
2019-01-11T18:22:42.455Z,102077.67
2019-01-11T18:25:10.753Z,102073.75
2019-01-11T18:27:39.128Z,102068.27
2019-01-11T18:30:10.654Z,102070.63
2019-01-11T18:32:39.059Z,102074.88
2019-01-11T18:35:07.478Z,102076.55
2019-01-11T18:37:35.813Z,102076.88
2019-01-11T18:40:12.974Z,102077.39
2019-01-11T18:42:41.642Z,102077.17
2019-01-11T18:45:10.202Z,102074.59
2019-01-11T18:47:39.096Z,102086.98
2019-01-11T18:50:10.875Z,102091.41
2019-01-11T18:52:39.220Z,102087.78
2019-01-11T18:55:08.534Z,102090.58
2019-01-11T18:57:37.111Z,102092.33
2019-01-11T19:00:14.738Z,102098.54
2019-01-11T19:02:43.137Z,102099.59
2019-01-11T19:05:14.087Z,102103.63
2019-01-11T19:07:46.076Z,102103.63
2019-01-11T19:10:18.105Z,102106.83
2019-01-11T19:12:46.518Z,102099.77
2019-01-11T19:15:18.169Z,102097.09
2019-01-11T19:17:46.437Z,102108.86
2019-01-11T19:20:17.235Z,102102.68
2019-01-11T19:22:45.504Z,102111.69
2019-01-11T19:25:13.923Z,102097.59
2019-01-11T19:27:42.387Z,102103.63
2019-01-11T19:30:16.865Z,102096.91
2019-01-11T19:32:45.389Z,102101.73
2019-01-11T19:35:13.825Z,102104.53
2019-01-11T19:37:42.831Z,102105.77
2019-01-11T19:40:14.277Z,102105.95
2019-01-11T19:42:42.763Z,102113.83
2019-01-11T19:45:14.430Z,102109.66
2019-01-11T19:47:42.931Z,102106.67
2019-01-11T19:50:14.429Z,102104.28
2019-01-11T19:52:42.958Z,102100.34
2019-01-11T19:55:11.562Z,102102.89
2019-01-11T19:57:40.016Z,102112.30
2019-01-11T20:00:20.849Z,102106.12
2019-01-11T20:02:50.736Z,102110.16
2019-01-11T20:05:21.775Z,102106.63
2019-01-11T20:08:03.772Z,102103.95
2019-01-11T20:10:34.956Z,102104.78
2019-01-11T20:13:15.413Z,102104.45
2019-01-11T20:15:44.731Z,102116.22
2019-01-11T20:18:21.558Z,102113.86
2019-01-11T20:20:55.951Z,102105.58
2019-01-11T20:23:34.676Z,102101.95
2019-01-11T20:26:08.508Z,102108.88
2019-01-11T20:28:37.443Z,102116.11
2019-01-11T20:31:06.287Z,102116.95
2019-01-11T20:33:36.060Z,102112.70
2019-01-11T20:36:06.391Z,102110.73
2019-01-11T20:38:34.925Z,102114.98
2019-01-11T20:41:03.479Z,102114.44
2019-01-11T20:43:33.111Z,102118.47
2019-01-11T20:46:03.339Z,102108.27
2019-01-11T20:48:31.616Z,102119.31
2019-01-11T20:50:59.887Z,102112.15
2019-01-11T20:53:28.300Z,102112.55
2019-01-11T20:56:14.448Z,102119.20
2019-01-11T20:58:43.616Z,102119.41
2019-01-11T21:01:19.067Z,102119.59
2019-01-11T21:03:47.621Z,102120.94
2019-01-11T21:06:23.843Z,102119.59
2019-01-11T21:08:52.812Z,102123.84
2019-01-11T21:11:21.577Z,102128.88
2019-01-11T21:13:54.148Z,102127.03
2019-01-11T21:16:22.681Z,102126.20
2019-01-11T21:18:55.971Z,102130.85
2019-01-11T21:21:24.666Z,102128.67
2019-01-11T21:23:55.437Z,102134.77
2019-01-11T21:26:27.225Z,102136.11
2019-01-11T21:28:59.511Z,102138.30
2019-01-11T21:31:28.371Z,102140.66
2019-01-11T21:33:59.510Z,102142.33
2019-01-11T21:36:28.025Z,102142.50
2019-01-11T21:38:56.569Z,102133.42
2019-01-11T21:41:29.945Z,102136.11
2019-01-11T21:43:58.546Z,102136.83
2019-01-11T21:46:27.789Z,102144.39
2019-01-11T21:49:01.583Z,102140.54
2019-01-11T21:51:30.606Z,102140.86
2019-01-11T21:53:59.855Z,102143.23
2019-01-11T21:56:28.391Z,102138.06
2019-01-11T21:58:58.232Z,102133.88
2019-01-11T22:01:26.763Z,102133.08
2019-01-11T22:03:58.359Z,102135.77
2019-01-11T22:06:27.649Z,102133.27
2019-01-11T22:08:56.182Z,102132.25
2019-01-11T22:11:24.570Z,102126.72
2019-01-11T22:13:53.739Z,102134.42
2019-01-11T22:16:23.906Z,102129.63
2019-01-11T22:18:55.831Z,102132.09
2019-01-11T22:21:27.349Z,102128.39
2019-01-11T22:24:02.862Z,102126.43
2019-01-11T22:26:26.965Z,102124.13
2019-01-11T22:29:08.934Z,102123.62
2019-01-11T22:31:37.451Z,102124.97
2019-01-11T22:34:06.905Z,102128.16
2019-01-11T22:36:35.324Z,102126.82
2019-01-11T22:39:05.015Z,102119.89
2019-01-11T22:41:34.376Z,102127.33
2019-01-11T22:44:02.829Z,102122.79
2019-01-11T22:46:31.123Z,102126.49
2019-01-11T22:48:59.596Z,102122.85
2019-01-11T22:51:27.967Z,102122.41
2019-01-11T22:53:56.304Z,102125.48
2019-01-11T22:56:24.829Z,102122.50
2019-01-11T22:58:53.094Z,102121.34
2019-01-11T23:01:30.504Z,102121.01
2019-01-11T23:04:01.197Z,102124.92
2019-01-11T23:06:34.620Z,102121.11
2019-01-11T23:09:05.253Z,102124.42
2019-01-11T23:11:52.348Z,102120.06
2019-01-11T23:14:20.854Z,102121.80
2019-01-11T23:16:52.324Z,102117.47
2019-01-11T23:19:21.618Z,102117.08
2019-01-11T23:21:53.115Z,102110.03
2019-01-11T23:24:22.476Z,102112.99
2019-01-11T23:26:50.897Z,102111.83
2019-01-11T23:29:19.203Z,102115.67
2019-01-11T23:31:47.751Z,102116.25
2019-01-11T23:34:16.035Z,102111.70
2019-01-11T23:36:44.473Z,102115.17
2019-01-11T23:39:12.910Z,102119.77
2019-01-11T23:41:41.262Z,102110.69
2019-01-11T23:44:09.748Z,102109.35
2019-01-11T23:46:38.230Z,102113.89
2019-01-11T23:49:06.652Z,102111.27
2019-01-11T23:51:34.951Z,102111.47
2019-01-11T23:54:03.258Z,102113.83
2019-01-11T23:56:31.725Z,102109.41
2019-01-11T23:59:00.162Z,102112.99
